Time;durP1;ratioP1;P1;durP2;ratioP2;P2;SDS_P1;SDS_P2;PMS_P1;PMS_P2;Temp;Humidity;BMP_temperature;BMP_pressure;BME280_temperature;BME280_humidity;BME280_pressure;Samples;Min_cycle;Max_cycle;Signal;HPM_P1;HPM_P2
2022/09/14 00:00:56;;;;;;;2.75;1.65;;;;;;;24.58;41.00;100513.28;1644354;87;21169;-80
2022/09/14 00:03:22;;;;;;;2.50;1.90;;;;;;;24.59;41.00;100508.53;1644210;87;21953;-80
2022/09/14 00:05:49;;;;;;;1.92;1.70;;;;;;;24.59;40.99;100511.31;1623805;87;21011;-80
2022/09/14 00:08:15;;;;;;;2.37;1.62;;;;;;;24.60;41.00;100506.56;1644430;86;21097;-80
2022/09/14 00:10:43;;;;;;;2.65;1.70;;;;;;;24.60;40.98;100509.34;1644360;87;21078;-80
2022/09/14 00:13:15;;;;;;;1.70;1.50;;;;;;;24.60;40.98;100507.95;1644520;86;21095;-80
2022/09/14 00:15:45;;;;;;;2.35;1.95;;;;;;;24.58;40.99;100512.47;1644836;86;21086;-80
2022/09/14 00:18:10;;;;;;;2.42;1.77;;;;;;;24.58;41.00;100518.84;1644192;85;21028;-80
2022/09/14 00:20:37;;;;;;;2.22;1.77;;;;;;;24.58;41.01;100524.41;1644524;86;21482;-80
2022/09/14 00:23:04;;;;;;;3.00;1.90;;;;;;;24.58;41.02;100529.16;1644431;86;21109;-79
2022/09/14 00:25:30;;;;;;;2.40;1.60;;;;;;;24.58;41.02;100527.19;1644285;86;21099;-80
2022/09/14 00:27:56;;;;;;;4.12;1.85;;;;;;;24.58;41.04;100525.80;1661964;85;21669;-80
2022/09/14 00:30:23;;;;;;;3.67;2.10;;;;;;;24.58;41.04;100529.16;1651956;85;21112;-80
2022/09/14 00:32:50;;;;;;;2.20;1.57;;;;;;;24.58;41.04;100527.19;1673027;85;21029;-80
2022/09/14 00:35:17;;;;;;;4.28;2.20;;;;;;;24.58;41.06;100521.63;1673147;85;22289;-80
2022/09/14 00:37:43;;;;;;;2.50;1.80;;;;;;;24.57;41.04;100515.83;1673183;85;21136;-80
2022/09/14 00:40:11;;;;;;;4.30;2.10;;;;;;;24.57;41.05;100515.02;1672832;84;21832;-80
2022/09/14 00:42:37;;;;;;;3.33;1.72;;;;;;;24.57;41.06;100520.00;1673095;85;21033;-80
2022/09/14 00:45:09;;;;;;;2.50;1.70;;;;;;;24.57;41.05;100520.58;1673296;84;21069;-80
2022/09/14 00:47:35;;;;;;;2.10;1.70;;;;;;;24.58;41.06;100526.38;1672723;85;21046;-80
2022/09/14 00:50:02;;;;;;;3.12;1.92;;;;;;;24.57;41.07;100524.75;1675208;84;21547;-80
2022/09/14 00:52:31;;;;;;;3.02;2.00;;;;;;;24.57;41.07;100520.58;1673465;85;21940;-80
2022/09/14 00:55:04;;;;;;;4.40;1.90;;;;;;;24.56;41.06;100519.79;1673396;84;21455;-80
2022/09/14 00:57:38;;;;;;;2.90;1.70;;;;;;;24.56;41.03;100521.18;1682060;84;21036;-80
2022/09/14 01:00:08;;;;;;;3.02;2.02;;;;;;;24.57;41.05;100519.19;1683400;85;21594;-80
2022/09/14 01:02:34;;;;;;;2.60;1.82;;;;;;;24.55;41.05;100511.21;1683634;85;21629;-80
2022/09/14 01:05:00;;;;;;;2.37;1.90;;;;;;;24.55;41.05;100518.16;1685123;84;22237;-80
2022/09/14 01:07:50;;;;;;;5.00;2.17;;;;;;;24.56;41.07;100517.59;1661561;85;21087;-80
2022/09/14 01:10:50;;;;;;;2.60;1.67;;;;;;;24.56;41.06;100520.37;1683741;85;21057;-80
2022/09/14 01:13:46;;;;;;;1.95;1.50;;;;;;;24.54;41.06;100519.89;1683426;85;21115;-79
2022/09/14 01:16:36;;;;;;;3.22;1.75;;;;;;;24.53;41.06;100516.30;1635099;85;21025;-80
2022/09/14 01:19:25;;;;;;;2.67;1.85;;;;;;;24.53;41.04;100512.70;1642612;85;21638;-80
2022/09/14 01:21:52;;;;;;;2.55;1.87;;;;;;;24.52;41.07;100509.72;1683253;85;21053;-80
2022/09/14 01:24:30;;;;;;;2.42;1.82;;;;;;;24.51;41.08;100514.47;1682865;85;21116;-80
2022/09/14 01:27:34;;;;;;;4.12;2.08;;;;;;;24.51;41.11;100506.13;1681631;83;21025;-81
2022/09/14 01:30:19;;;;;;;2.75;2.20;;;;;;;24.51;41.12;100504.73;1683158;85;21130;-81
2022/09/14 01:33:14;;;;;;;3.70;1.90;;;;;;;24.50;41.11;100498.94;1683421;85;21040;-80
2022/09/14 01:35:45;;;;;;;3.27;2.05;;;;;;;24.50;41.12;100498.94;1683191;83;21017;-80
2022/09/14 01:38:29;;;;;;;3.02;1.92;;;;;;;24.50;41.10;100494.77;1683641;85;21064;-80
2022/09/14 01:41:04;;;;;;;2.72;1.80;;;;;;;24.50;41.13;100486.42;1683340;85;21056;-80
2022/09/14 01:43:49;;;;;;;3.37;2.02;;;;;;;24.49;41.12;100483.98;1683720;85;21096;-80
2022/09/14 01:46:22;;;;;;;3.58;1.90;;;;;;;24.49;41.12;100479.23;1683350;85;21563;-80
2022/09/14 01:49:14;;;;;;;2.85;1.80;;;;;;;24.49;41.13;100481.20;1683404;85;21128;-81
2022/09/14 01:51:49;;;;;;;2.50;1.70;;;;;;;24.49;41.13;100482.02;1683261;85;21104;-80
2022/09/14 01:54:29;;;;;;;3.25;2.35;;;;;;;24.49;41.15;100488.16;1683376;85;21049;-80
2022/09/14 01:57:01;;;;;;;3.08;1.70;;;;;;;24.48;41.17;100487.37;1678216;84;20973;-81
2022/09/14 01:59:31;;;;;;;3.33;2.25;;;;;;;24.48;41.18;100492.93;1673231;85;21162;-80
2022/09/14 02:02:05;;;;;;;4.67;2.15;;;;;;;24.48;41.18;100493.50;1673400;85;21034;-80
2022/09/14 02:04:52;;;;;;;3.25;2.10;;;;;;;24.48;41.18;100497.10;1668638;84;21081;-81
2022/09/14 02:07:18;;;;;;;2.52;1.92;;;;;;;24.49;41.17;100499.27;1673445;85;21061;-80
2022/09/14 02:09:46;;;;;;;2.52;2.15;;;;;;;24.49;41.17;100507.04;1673019;84;21170;-80
2022/09/14 02:12:12;;;;;;;3.15;2.12;;;;;;;24.48;41.18;100499.06;1673278;85;21158;-80
2022/09/14 02:14:38;;;;;;;3.62;2.20;;;;;;;24.49;41.20;100499.27;1651436;85;21139;-80
2022/09/14 02:17:07;;;;;;;3.30;2.27;;;;;;;24.49;41.21;100491.74;1624683;86;21697;-80
2022/09/14 02:19:38;;;;;;;4.28;2.77;;;;;;;24.49;41.23;100497.30;1633551;87;21096;-80
2022/09/14 02:22:05;;;;;;;3.10;2.20;;;;;;;24.49;41.21;100488.96;1633615;86;21128;-81
2022/09/14 02:24:31;;;;;;;3.55;2.60;;;;;;;24.48;41.22;100495.71;1633384;86;21163;-80
2022/09/14 02:26:57;;;;;;;2.92;2.37;;;;;;;24.49;41.20;100503.45;1633414;86;21598;-80
2022/09/14 02:29:24;;;;;;;3.27;2.40;;;;;;;24.49;41.21;100505.65;1620399;87;21099;-80
2022/09/14 02:32:33;;;;;;;4.17;2.40;;;;;;;24.49;41.19;100504.26;1633258;86;21067;-80
2022/09/14 02:35:22;;;;;;;3.65;2.40;;;;;;;24.50;41.19;100510.06;1633890;87;21075;-80
2022/09/14 02:38:04;;;;;;;2.50;2.30;;;;;;;24.48;41.18;100504.05;1633331;87;21190;-80
2022/09/14 02:40:59;;;;;;;2.77;2.20;;;;;;;24.48;41.18;100494.32;1633433;87;21084;-80
2022/09/14 02:43:48;;;;;;;5.53;2.35;;;;;;;24.48;41.19;100494.89;1632991;86;21049;-81
2022/09/14 02:46:26;;;;;;;3.33;2.50;;;;;;;24.47;41.19;100500.22;1633673;87;21514;-80
2022/09/14 02:49:12;;;;;;;3.10;2.20;;;;;;;24.46;41.19;100499.41;1633124;87;21041;-81
2022/09/14 02:51:59;;;;;;;3.37;2.20;;;;;;;24.47;41.20;100497.44;1633868;87;21297;-80
2022/09/14 02:54:49;;;;;;;5.25;2.40;;;;;;;24.46;41.21;100493.84;1599815;87;21092;-80
2022/09/14 02:57:15;;;;;;;4.42;2.50;;;;;;;24.45;41.24;100492.22;1606639;85;21045;-80
2022/09/14 02:59:41;;;;;;;2.47;2.17;;;;;;;24.45;41.23;100492.22;1606346;88;21121;-80
2022/09/14 03:02:08;;;;;;;3.33;2.17;;;;;;;24.45;41.22;100490.02;1606631;89;21642;-80
2022/09/14 03:04:34;;;;;;;3.12;2.58;;;;;;;24.46;41.25;100493.03;1606829;87;21268;-80
2022/09/14 03:07:01;;;;;;;4.53;2.17;;;;;;;24.45;41.25;100481.09;1584396;89;21140;-80
2022/09/14 03:09:27;;;;;;;3.45;2.00;;;;;;;24.45;41.25;100483.88;1606701;87;21156;-80
2022/09/14 03:11:53;;;;;;;3.05;2.15;;;;;;;24.45;41.26;100481.09;1606624;89;21079;-80
2022/09/14 03:14:26;;;;;;;2.90;2.30;;;;;;;24.45;41.27;100488.05;1606551;88;21077;-80
2022/09/14 03:16:52;;;;;;;2.80;1.98;;;;;;;24.47;41.25;100491.88;1606752;87;21309;-80
2022/09/14 03:19:18;;;;;;;4.60;2.50;;;;;;;24.46;41.26;100496.62;1585311;88;21554;-80
2022/09/14 03:21:44;;;;;;;4.47;2.40;;;;;;;24.46;41.26;100495.81;1606143;87;21527;-80
2022/09/14 03:24:11;;;;;;;5.22;2.40;;;;;;;24.46;41.27;100498.59;1606674;88;21068;-80
2022/09/14 03:26:38;;;;;;;3.47;2.25;;;;;;;24.46;41.25;100507.75;1606816;88;21093;-81
2022/09/14 03:29:05;;;;;;;3.52;2.20;;;;;;;24.46;41.25;100511.92;1606326;87;22062;-80
2022/09/14 03:31:31;;;;;;;3.52;2.30;;;;;;;24.46;41.25;100506.36;1671643;85;21040;-81
2022/09/14 03:33:59;;;;;;;2.87;2.10;;;;;;;24.47;41.24;100509.38;1673107;85;21108;-79
2022/09/14 03:36:27;;;;;;;3.22;2.10;;;;;;;24.46;41.26;100510.53;1672991;85;21514;-80
2022/09/14 03:38:56;;;;;;;3.30;2.02;;;;;;;24.47;41.24;100520.50;1673144;85;21041;-79
2022/09/14 03:41:25;;;;;;;2.72;2.10;;;;;;;24.47;41.24;100515.52;1672953;85;21182;-80
2022/09/14 03:43:52;;;;;;;2.80;2.10;;;;;;;24.46;41.25;100516.09;1672826;85;21085;-79
2022/09/14 03:46:24;;;;;;;2.75;2.15;;;;;;;24.47;41.24;100521.08;1672895;85;21061;-79
2022/09/14 03:48:51;;;;;;;2.25;1.85;;;;;;;24.46;41.24;100524.44;1673109;85;21496;-79
2022/09/14 03:51:17;;;;;;;4.45;2.27;;;;;;;24.47;41.24;100525.25;1672918;85;21080;-79
2022/09/14 03:53:44;;;;;;;4.47;2.20;;;;;;;24.48;41.23;100531.05;1639527;85;21128;-79
2022/09/14 03:56:14;;;;;;;3.10;2.47;;;;;;;24.46;41.20;100531.39;1673003;85;21615;-79
2022/09/14 03:58:43;;;;;;;3.35;2.30;;;;;;;24.44;41.19;100534.30;1672159;84;21084;-79
2022/09/14 04:01:13;;;;;;;4.35;2.60;;;;;;;24.43;41.20;100527.11;1673000;84;21590;-79
2022/09/14 04:03:45;;;;;;;4.80;2.67;;;;;;;24.42;41.12;100529.08;1672943;84;21563;-79
2022/09/14 04:06:13;;;;;;;4.55;2.77;;;;;;;24.42;41.00;100524.09;1672501;85;21127;-79
2022/09/14 04:08:39;;;;;;;4.33;2.40;;;;;;;24.40;40.85;100527.22;1672435;84;21041;-79
2022/09/14 04:11:18;;;;;;;6.62;2.65;;;;;;;24.39;40.69;100527.58;1672609;84;21077;-79
2022/09/14 04:13:45;;;;;;;4.75;2.70;;;;;;;24.37;40.59;100527.11;1672583;85;21558;-79
2022/09/14 04:16:11;;;;;;;4.92;2.37;;;;;;;24.35;40.50;100526.66;1673009;85;21057;-81
2022/09/14 04:18:38;;;;;;;3.67;2.35;;;;;;;24.31;40.41;100530.73;1672448;85;21315;-79
2022/09/14 04:21:07;;;;;;;5.30;2.52;;;;;;;24.29;40.35;100533.61;1672088;85;21420;-79
2022/09/14 04:23:33;;;;;;;10.75;2.83;;;;;;;24.24;40.23;100537.44;1672394;85;21048;-79
2022/09/14 04:26:00;;;;;;;5.17;2.40;;;;;;;24.19;40.13;100529.93;1673064;85;21146;-79
2022/09/14 04:28:26;;;;;;;5.08;2.75;;;;;;;24.13;40.02;100538.47;1667207;85;21102;-80
2022/09/14 04:30:57;;;;;;;4.67;2.20;;;;;;;24.07;39.97;100541.80;1640602;87;21075;-82
2022/09/14 04:33:24;;;;;;;7.87;2.27;;;;;;;24.02;39.98;100547.59;1644747;85;21611;-82
2022/09/14 04:36:12;;;;;;;2.77;2.02;;;;;;;23.97;39.97;100546.45;1650706;85;21071;-81
2022/09/14 04:38:39;;;;;;;4.40;2.20;;;;;;;23.92;39.96;100536.38;1641404;84;21074;-82
2022/09/14 04:41:10;;;;;;;10.53;2.30;;;;;;;23.86;40.00;100548.05;1633961;86;21494;-81
2022/09/14 04:43:37;;;;;;;14.90;2.77;;;;;;;23.82;40.02;100538.78;1642690;84;21149;-82
2022/09/14 04:46:05;;;;;;;27.62;3.50;;;;;;;23.79;40.03;100536.70;1600711;87;22177;-83
2022/09/14 04:48:33;;;;;;;12.50;3.05;;;;;;;23.75;39.98;100534.39;1638172;85;21072;-80
2022/09/14 04:51:07;;;;;;;33.08;4.95;;;;;;;23.67;40.03;100541.67;1611357;87;21630;-82
2022/09/14 04:53:35;;;;;;;29.77;4.17;;;;;;;23.61;40.09;100541.66;1642400;84;21606;-80
2022/09/14 04:56:06;;;;;;;23.10;4.55;;;;;;;23.56;40.17;100543.25;1642929;86;21128;-81
2022/09/14 04:58:37;;;;;;;16.40;3.87;;;;;;;23.53;40.19;100543.95;1629733;85;21093;-83
2022/09/14 05:01:08;;;;;;;8.45;3.47;;;;;;;23.47;40.29;100539.76;1632750;85;21141;-80
2022/09/14 05:03:41;;;;;;;10.93;3.42;;;;;;;23.41;40.23;100539.73;1629600;85;21129;-79
2022/09/14 05:06:22;;;;;;;5.85;2.90;;;;;;;23.22;40.32;100530.52;1620401;85;21043;-83
2022/09/14 05:08:56;;;;;;;9.85;3.33;;;;;;;23.17;40.45;100533.50;1696782;81;21185;-79
2022/09/14 05:11:24;;;;;;;10.63;3.40;;;;;;;23.19;40.46;100521.50;1657625;84;21543;-78
2022/09/14 05:13:54;;;;;;;11.28;3.12;;;;;;;23.21;40.40;100534.47;1682098;82;21102;-79
2022/09/14 05:16:24;;;;;;;6.92;3.12;;;;;;;23.23;40.37;100529.38;1672216;83;21071;-81
2022/09/14 05:19:06;;;;;;;6.70;2.87;;;;;;;23.28;40.29;100532.52;1654589;84;21034;-85
2022/09/14 05:21:34;;;;;;;6.05;3.20;;;;;;;23.30;40.27;100539.94;1661194;84;21156;-81
2022/09/14 05:24:11;;;;;;;11.08;3.75;;;;;;;23.33;40.21;100544.23;1654372;84;21058;-86
2022/09/14 05:26:38;;;;;;;9.58;3.10;;;;;;;23.37;40.18;100536.83;1681798;83;21106;-85
2022/09/14 05:29:04;;;;;;;6.75;2.95;;;;;;;23.40;40.12;100537.52;1675074;83;21182;-86
2022/09/14 05:31:31;;;;;;;9.63;3.62;;;;;;;23.44;40.08;100539.06;1689934;82;21050;-85
2022/09/14 05:33:58;;;;;;;7.42;3.08;;;;;;;23.46;40.03;100539.55;1677677;83;21521;-86
2022/09/14 05:36:24;;;;;;;6.55;2.90;;;;;;;23.48;39.97;100533.06;1661667;84;21801;-85
2022/09/14 05:38:51;;;;;;;8.85;3.30;;;;;;;23.49;39.96;100536.89;1648382;85;21330;-83
2022/09/14 05:41:17;;;;;;;12.70;3.12;;;;;;;23.50;40.01;100541.87;1663375;83;21094;-80
2022/09/14 05:43:44;;;;;;;9.15;3.47;;;;;;;23.53;40.04;100546.73;1660904;84;21121;-84
2022/09/14 05:46:19;;;;;;;7.25;2.80;;;;;;;23.55;40.13;100552.77;1633396;84;21898;-82
2022/09/14 05:48:50;;;;;;;13.30;2.80;;;;;;;23.58;40.12;100555.66;1663983;83;21128;-78
2022/09/14 05:51:19;;;;;;;8.05;2.33;;;;;;;23.56;40.35;100548.81;1656675;84;21109;-78
2022/09/14 05:53:53;;;;;;;17.17;2.85;;;;;;;23.53;40.59;100562.00;1681507;83;21095;-78
2022/09/14 05:56:21;;;;;;;10.50;2.67;;;;;;;23.51;40.69;100563.72;1650017;85;21081;-79
2022/09/14 05:58:47;;;;;;;13.53;3.02;;;;;;;23.50;40.86;100563.52;1664679;83;22050;-80
2022/09/14 06:01:25;;;;;;;25.68;3.42;;;;;;;23.51;40.97;100558.74;1672019;83;21043;-78
2022/09/14 06:04:01;;;;;;;14.45;3.22;;;;;;;23.51;41.20;100560.95;1638453;84;21653;-75
2022/09/14 06:06:27;;;;;;;14.80;3.05;;;;;;;23.52;41.27;100561.19;1640585;84;21082;-76
2022/09/14 06:08:55;;;;;;;18.55;4.87;;;;;;;23.50;41.26;100571.84;1639455;84;21134;-76
2022/09/14 06:11:25;;;;;;;19.62;6.65;;;;;;;23.52;41.27;100571.48;1613718;85;21914;-76
2022/09/14 06:13:52;;;;;;;13.95;5.20;;;;;;;23.51;41.20;100567.89;1650647;85;21071;-75
2022/09/14 06:16:19;;;;;;;21.65;5.50;;;;;;;23.50;41.18;100582.95;1637205;85;21146;-75
2022/09/14 06:18:46;;;;;;;25.08;6.33;;;;;;;23.53;41.18;100586.42;1645981;84;21023;-75
2022/09/14 06:21:15;;;;;;;27.17;7.22;;;;;;;23.55;41.17;100584.09;1643701;83;21541;-75
2022/09/14 06:23:42;;;;;;;27.00;7.67;;;;;;;23.61;41.21;100586.09;1636957;85;21633;-75
2022/09/14 06:26:09;;;;;;;21.57;9.13;;;;;;;23.66;41.17;100594.20;1607500;86;21104;-75
2022/09/14 06:28:35;;;;;;;22.30;8.95;;;;;;;23.68;41.13;100582.97;1645244;84;21078;-75
2022/09/14 06:31:03;;;;;;;20.60;9.48;;;;;;;23.72;41.11;100592.81;1620959;85;21093;-75
2022/09/14 06:33:31;;;;;;;25.57;8.45;;;;;;;23.74;41.14;100596.65;1638785;84;21310;-76
2022/09/14 06:36:08;;;;;;;25.45;7.47;;;;;;;23.73;41.11;100588.89;1599079;86;21194;-76
2022/09/14 06:38:33;;;;;;;18.57;6.20;;;;;;;23.76;41.07;100590.19;1641907;85;21091;-76
2022/09/14 06:41:03;;;;;;;13.75;5.17;;;;;;;23.74;41.09;100592.48;1670125;83;21058;-76
2022/09/14 06:43:33;;;;;;;16.40;5.00;;;;;;;23.76;41.02;100595.74;1677601;83;21085;-75
2022/09/14 06:46:14;;;;;;;16.15;4.97;;;;;;;23.73;40.97;100579.17;1642704;85;21058;-75
2022/09/14 06:48:48;;;;;;;19.57;4.40;;;;;;;23.71;40.96;100588.44;1640002;83;21312;-78
2022/09/14 06:51:21;;;;;;;19.05;4.90;;;;;;;23.69;41.41;100585.17;1635415;85;21144;-79
2022/09/14 06:53:54;;;;;;;28.30;5.67;;;;;;;23.73;41.76;100586.69;1641356;85;21628;-77
2022/09/14 06:56:20;;;;;;;30.48;5.50;;;;;;;23.72;42.04;100580.92;1673714;83;21421;-77
2022/09/14 06:58:47;;;;;;;21.60;4.83;;;;;;;23.73;42.41;100576.97;1677468;83;21097;-83
2022/09/14 07:01:15;;;;;;;30.25;4.95;;;;;;;23.74;42.78;100579.98;1678821;82;21537;-83
2022/09/14 07:03:42;;;;;;;31.60;7.10;;;;;;;23.76;42.85;100572.95;1676772;82;21875;-83
2022/09/14 07:06:13;;;;;;;29.45;5.65;;;;;;;23.77;43.13;100583.45;1667976;82;21368;-84
2022/09/14 07:08:39;;;;;;;29.32;6.42;;;;;;;23.77;43.09;100575.94;1668641;83;21153;-84
2022/09/14 07:11:07;;;;;;;23.85;5.92;;;;;;;23.79;43.06;100571.44;1676925;83;21116;-84
2022/09/14 07:13:33;;;;;;;16.73;6.00;;;;;;;23.82;42.96;100576.29;1670869;83;21139;-82
2022/09/14 07:15:59;;;;;;;22.10;6.05;;;;;;;23.84;42.90;100574.00;1643642;84;21109;-87
2022/09/14 07:18:30;;;;;;;17.48;5.25;;;;;;;23.86;42.83;100573.05;1638267;86;21126;-86
2022/09/14 07:20:57;;;;;;;26.17;6.12;;;;;;;23.85;42.71;100570.06;1647547;84;21074;-88
2022/09/14 07:23:23;;;;;;;15.55;5.53;;;;;;;23.87;42.61;100575.50;1639692;85;21554;-83
2022/09/14 07:26:06;;;;;;;19.27;4.67;;;;;;;23.89;42.52;100580.72;1645382;83;21204;-81
2022/09/14 07:28:34;;;;;;;12.70;4.80;;;;;;;23.89;42.41;100569.61;1613727;87;21101;-82
2022/09/14 07:31:00;;;;;;;15.88;5.35;;;;;;;23.91;42.40;100571.45;1618543;87;21416;-86
2022/09/14 07:33:27;;;;;;;17.02;5.28;;;;;;;23.92;42.32;100572.50;1617285;86;21691;-86
2022/09/14 07:35:53;;;;;;;13.75;4.60;;;;;;;23.92;42.28;100571.11;1653567;84;21134;-84
2022/09/14 07:38:20;;;;;;;17.48;5.35;;;;;;;23.93;42.26;100573.31;1640671;85;21099;-85
2022/09/14 07:40:46;;;;;;;20.92;5.08;;;;;;;23.95;42.22;100567.63;1673300;83;21098;-84
2022/09/14 07:43:13;;;;;;;15.43;5.20;;;;;;;23.96;42.19;100572.04;1644385;85;21082;-81
2022/09/14 07:45:39;;;;;;;12.43;4.08;;;;;;;23.98;42.21;100573.06;1640242;85;21051;-84
2022/09/14 07:48:06;;;;;;;16.45;4.97;;;;;;;23.99;42.24;100571.34;1685115;82;21074;-86
2022/09/14 07:50:33;;;;;;;36.53;5.15;;;;;;;24.01;42.20;100569.62;1604662;85;41259;-86
2022/09/14 07:53:01;;;;;;;24.90;4.67;;;;;;;24.01;42.40;100568.23;1625181;86;21612;-85
2022/09/14 07:55:28;;;;;;;33.08;5.20;;;;;;;24.03;43.06;100572.84;1640451;85;21114;-84
2022/09/14 07:57:55;;;;;;;20.60;4.83;;;;;;;24.05;43.43;100574.71;1639412;85;21252;-80
2022/09/14 08:00:22;;;;;;;28.10;5.35;;;;;;;24.04;43.52;100571.69;1645017;84;21587;-80
2022/09/14 08:02:52;;;;;;;32.48;5.72;;;;;;;24.06;43.76;100573.56;1648782;83;21540;-78
2022/09/14 08:05:19;;;;;;;25.23;6.08;;;;;;;24.03;44.12;100565.89;1675572;83;21620;-79
2022/09/14 08:07:45;;;;;;;22.48;6.97;;;;;;;24.04;44.43;100561.97;1676225;82;22017;-78
2022/09/14 08:10:12;;;;;;;27.73;5.70;;;;;;;24.09;44.63;100568.69;1652897;85;21205;-79
2022/09/14 08:12:38;;;;;;;29.12;6.10;;;;;;;24.12;44.75;100560.47;1682628;83;21050;-80
2022/09/14 08:15:06;;;;;;;23.25;5.75;;;;;;;24.16;44.75;100557.01;1647384;84;22083;-82
2022/09/14 08:17:33;;;;;;;17.73;5.05;;;;;;;24.16;44.58;100552.27;1642889;85;20963;-80
2022/09/14 08:19:59;;;;;;;23.90;5.40;;;;;;;24.17;44.48;100542.77;1645873;84;21074;-79
2022/09/14 08:22:26;;;;;;;21.10;4.97;;;;;;;24.16;44.37;100536.98;1647452;85;21086;-80
2022/09/14 08:24:52;;;;;;;23.95;6.55;;;;;;;24.18;44.24;100531.90;1619851;85;21347;-82
2022/09/14 08:27:19;;;;;;;18.52;6.30;;;;;;;24.18;44.13;100533.28;1683829;83;21122;-80
2022/09/14 08:29:45;;;;;;;18.70;5.65;;;;;;;24.18;44.02;100528.30;1681554;82;21565;-81
2022/09/14 08:32:12;;;;;;;20.80;5.45;;;;;;;24.18;43.88;100534.67;1654235;85;21085;-80
2022/09/14 08:34:39;;;;;;;16.12;5.25;;;;;;;24.18;43.77;100535.25;1650421;85;21101;-82
2022/09/14 08:37:05;;;;;;;17.07;4.45;;;;;;;24.19;43.70;100537.66;1645680;85;21118;-83
2022/09/14 08:39:32;;;;;;;20.90;5.28;;;;;;;24.19;43.72;100536.27;1619586;85;21309;-81
2022/09/14 08:41:59;;;;;;;23.20;5.15;;;;;;;24.20;43.92;100529.56;1678416;83;21083;-80
2022/09/14 08:44:42;;;;;;;28.42;5.55;;;;;;;24.23;44.52;100528.86;1677320;83;21066;-80
2022/09/14 08:47:15;;;;;;;21.73;4.80;;;;;;;24.25;44.90;100529.33;1682902;82;21108;-79
2022/09/14 08:50:04;;;;;;;11.05;3.85;;;;;;;24.28;44.69;100535.58;1669709;83;21109;-77
2022/09/14 08:52:35;;;;;;;13.62;3.65;;;;;;;24.27;44.39;100530.39;1694820;82;21174;-78
2022/09/14 08:55:36;;;;;;;12.15;3.60;;;;;;;24.22;43.97;100531.43;1690026;82;21280;-80
2022/09/14 08:58:38;;;;;;;12.95;3.27;;;;;;;24.20;43.65;100521.22;1682873;83;21165;-78
2022/09/14 09:01:40;;;;;;;14.00;3.70;;;;;;;24.20;43.82;100524.58;1675441;83;21109;-79
2022/09/14 09:04:30;;;;;;;10.45;2.85;;;;;;;24.23;43.93;100516.95;1640231;83;21509;-79
2022/09/14 09:07:13;;;;;;;19.25;3.20;;;;;;;24.25;43.92;100518.21;1643839;85;21192;-80
2022/09/14 09:09:52;;;;;;;8.23;3.37;;;;;;;24.26;43.88;100522.63;1648292;85;21127;-79
2022/09/14 09:12:26;;;;;;;18.65;6.62;;;;;;;24.27;43.90;100517.88;1670553;83;21054;-80
2022/09/14 09:14:55;;;;;;;15.70;6.47;;;;;;;24.28;43.80;100511.13;1674596;84;21627;-81
2022/09/14 09:17:38;;;;;;;19.67;7.25;;;;;;;24.28;43.74;100514.72;1674493;83;21116;-80
2022/09/14 09:20:25;;;;;;;15.72;6.30;;;;;;;24.29;43.77;100501.06;1669079;83;22303;-81
2022/09/14 09:23:14;;;;;;;14.78;4.90;;;;;;;24.30;43.78;100510.22;1677069;83;21050;-80
2022/09/14 09:25:54;;;;;;;13.72;4.58;;;;;;;24.31;43.71;100512.66;1672246;83;21054;-80
2022/09/14 09:28:21;;;;;;;18.00;5.22;;;;;;;24.32;43.67;100511.47;1715332;80;21066;-79
2022/09/14 09:30:48;;;;;;;10.23;5.20;;;;;;;24.32;43.61;100514.83;1733140;80;21077;-79
2022/09/14 09:33:23;;;;;;;7.87;3.52;;;;;;;24.32;43.55;100513.44;1703349;81;22312;-80
2022/09/14 09:35:50;;;;;;;15.55;6.55;;;;;;;24.33;43.40;100508.93;1692608;83;21062;-79
2022/09/14 09:38:23;;;;;;;14.75;5.58;;;;;;;24.34;43.28;100506.97;1729989;81;21047;-79
2022/09/14 09:41:20;;;;;;;7.12;3.98;;;;;;;24.34;43.22;100506.39;1709854;82;21114;-80
2022/09/14 09:44:08;;;;;;;5.40;3.30;;;;;;;24.35;43.14;100507.20;1678858;82;21137;-79
2022/09/14 09:46:37;;;;;;;8.03;3.70;;;;;;;24.34;42.90;100506.97;1734925;82;21239;-80
2022/09/14 09:49:10;;;;;;;10.98;3.72;;;;;;;24.35;42.67;100514.97;1731611;81;21156;-80
2022/09/14 09:51:37;;;;;;;8.33;3.87;;;;;;;24.36;42.79;100515.75;1705086;81;21123;-80
2022/09/14 09:54:17;;;;;;;13.32;4.40;;;;;;;24.36;42.89;100514.36;1727799;82;21104;-80
2022/09/14 09:56:59;;;;;;;17.07;4.37;;;;;;;24.39;43.06;100508.94;1733850;81;21073;-80
2022/09/14 09:59:43;;;;;;;14.68;3.40;;;;;;;24.40;42.93;100504.19;1734975;81;21911;-77
2022/09/14 10:02:23;;;;;;;10.13;3.65;;;;;;;24.39;42.86;100506.16;1737761;80;21216;-82
2022/09/14 10:05:07;;;;;;;15.58;3.37;;;;;;;24.40;42.72;100499.41;1735482;80;21410;-80
2022/09/14 10:07:36;;;;;;;7.60;2.33;;;;;;;24.40;42.54;100502.19;1708089;81;21629;-80
2022/09/14 10:10:09;;;;;;;6.97;2.22;;;;;;;24.41;42.27;100498.83;1707152;82;21771;-80
2022/09/14 10:12:38;;;;;;;8.85;2.08;;;;;;;24.40;42.02;100496.62;1702713;82;21168;-79
2022/09/14 10:15:26;;;;;;;5.65;2.27;;;;;;;24.40;41.83;100495.23;1717859;83;21946;-79
2022/09/14 10:17:58;;;;;;;15.80;2.50;;;;;;;24.42;41.69;100492.93;1717895;81;21656;-80
2022/09/14 10:20:25;;;;;;;6.30;2.35;;;;;;;24.42;41.66;100485.16;1711088;83;21135;-81
2022/09/14 10:22:51;;;;;;;10.40;2.40;;;;;;;24.42;41.59;100474.86;1732185;82;21123;-81
2022/09/14 10:25:22;;;;;;;9.20;2.85;;;;;;;24.42;41.50;100479.61;1710656;82;22303;-80
2022/09/14 10:27:58;;;;;;;9.08;3.20;;;;;;;24.42;41.42;100479.03;1716925;81;21096;-79
2022/09/14 10:30:42;;;;;;;5.17;2.80;;;;;;;24.41;41.41;100471.84;1730644;82;21149;-81
2022/09/14 10:33:13;;;;;;;11.33;2.92;;;;;;;24.41;41.33;100470.45;1717363;82;21130;-82
2022/09/14 10:36:23;;;;;;;10.45;2.52;;;;;;;24.41;41.23;100466.85;1697616;84;21093;-83
2022/09/14 10:39:00;;;;;;;7.12;2.47;;;;;;;24.40;41.16;100470.82;1701683;82;22058;-83
2022/09/14 10:41:38;;;;;;;9.60;2.80;;;;;;;24.39;41.14;100466.41;1684976;82;21042;-84
2022/09/14 10:44:39;;;;;;;9.50;2.62;;;;;;;24.38;41.07;100460.03;1685580;83;21140;-82
2022/09/14 10:47:30;;;;;;;6.10;2.77;;;;;;;24.38;41.01;100455.87;1714509;82;21062;-82
2022/09/14 10:50:10;;;;;;;4.80;2.52;;;;;;;24.39;40.96;100460.84;1706273;83;21176;-81
2022/09/14 10:52:54;;;;;;;9.30;3.07;;;;;;;24.39;40.83;100469.19;1705156;82;21230;-82
2022/09/14 10:56:00;;;;;;;15.25;2.90;;;;;;;24.37;41.03;100463.97;1689905;83;21093;-82
2022/09/14 10:58:47;;;;;;;13.08;2.30;;;;;;;24.41;41.43;100456.55;1693722;83;21123;-81
2022/09/14 11:01:47;;;;;;;17.27;2.50;;;;;;;24.46;41.64;100452.13;1682734;83;21193;-82
2022/09/14 11:04:24;;;;;;;16.48;2.58;;;;;;;24.50;41.43;100451.66;1681169;83;21117;-84
2022/09/14 11:07:08;;;;;;;15.53;3.08;;;;;;;24.55;41.53;100451.41;1685617;83;21058;-82
2022/09/14 11:09:46;;;;;;;20.60;2.27;;;;;;;24.58;41.45;100440.15;1686442;83;21101;-85
2022/09/14 11:12:37;;;;;;;12.93;2.75;;;;;;;24.60;41.40;100443.98;1706601;83;21025;-84
2022/09/14 11:15:25;;;;;;;6.87;2.45;;;;;;;24.59;41.39;100432.04;1708982;82;20987;-83
2022/09/14 11:18:15;;;;;;;11.97;2.45;;;;;;;24.60;41.42;100425.33;1687741;83;21076;-82
2022/09/14 11:21:14;;;;;;;12.68;2.80;;;;;;;24.60;41.31;100427.29;1675847;84;21330;-82
2022/09/14 11:23:58;;;;;;;10.03;2.50;;;;;;;24.58;41.28;100427.06;1716074;82;21086;-83
2022/09/14 11:26:30;;;;;;;5.03;1.85;;;;;;;24.57;41.25;100432.96;1698549;83;21758;-83
2022/09/14 11:29:25;;;;;;;3.15;1.77;;;;;;;24.56;41.08;100411.90;1665690;84;21182;-83
2022/09/14 11:32:03;;;;;;;11.12;2.15;;;;;;;24.55;40.92;100410.27;1661912;84;21570;-81
2022/09/14 11:34:46;;;;;;;6.15;2.00;;;;;;;24.53;40.83;100400.06;1669329;83;21114;-81
2022/09/14 11:37:18;;;;;;;8.73;2.25;;;;;;;24.52;40.76;100390.94;1669653;83;21744;-82
2022/09/14 11:39:52;;;;;;;7.33;2.00;;;;;;;24.52;40.77;100387.34;1683027;83;21122;-84
2022/09/14 11:42:27;;;;;;;6.58;2.20;;;;;;;24.51;40.65;100387.92;1662028;83;21126;-81
2022/09/14 11:47:56;;;;;;;5.10;2.12;;;;;;;24.52;40.48;100382.59;1681940;83;21223;-83
2022/09/14 11:50:25;;;;;;;5.45;2.50;;;;;;;24.53;40.38;100377.23;1671996;83;21028;-81
2022/09/14 11:53:12;;;;;;;5.95;2.22;;;;;;;24.53;40.57;100384.20;1678542;83;21731;-81